Cologne, Virginia
Current Conditions -  °F | °C
As of 2:15 AM on Friday 28 Nov 2014 (Local Time) from KFYJ Reporting Station
Scattered Clouds Scattered Clouds  
Wind Chill: 33°   Ceiling: Unl
Heat Index: 37°   Visibility: 10mi
Dew Point: 26°   Wind: 5mph
Humidity: 66%   Direction: 300°WNW
Pressure: 30.23"   Gusts: NA
Location:  37.6069°N, 76.8926°W
Report Text: KFYJ 280715Z AUTO 30004KT 10SM SCT048 03/M03 A3023 RMK AO2 T00261031
Loading
Personal Weather Stations






























Interactive Weather Map New forecast layout! Learn more

10-Day Weather Forecast

Advertisements
Track Severe Weather on mobile